Time;durP1;ratioP1;P1;durP2;ratioP2;P2;SDS_P1;SDS_P2;PMS_P1;PMS_P2;Temp;Humidity;BMP_temperature;BMP_pressure;BME280_temperature;BME280_humidity;BME280_pressure;Samples;Min_cycle;Max_cycle;Signal;HPM_P1;HPM_P2
2023/01/17 00:00:18;;;;;;;3.60;2.63;;;;;;;2.93;100.00;97975.16;1039718;28;20292;-82
2023/01/17 00:00:49;;;;;;;3.55;2.60;;;;;;;2.83;100.00;97977.63;1040155;28;20406;-82
2023/01/17 00:01:22;;;;;;;3.10;2.85;;;;;;;2.81;100.00;97977.06;1046818;28;20302;-81
2023/01/17 00:01:54;;;;;;;3.70;2.80;;;;;;;2.84;100.00;97978.44;1035656;28;20301;-80
2023/01/17 00:02:27;;;;;;;2.92;2.63;;;;;;;2.86;100.00;97981.63;1035253;28;20304;-82
2023/01/17 00:02:59;;;;;;;3.40;2.45;;;;;;;2.85;100.00;97977.41;1030941;28;20890;-82
2023/01/17 00:03:30;;;;;;;4.80;2.80;;;;;;;2.85;100.00;97987.91;1032581;28;20384;-82
2023/01/17 00:09:55;;;;;;;1.73;1.63;;;;;;;2.72;100.00;98000.28;1042936;28;20372;-82
2023/01/17 00:10:27;;;;;;;1.67;1.58;;;;;;;2.68;100.00;98004.44;1043313;28;20303;-82
2023/01/17 00:10:59;;;;;;;1.98;1.35;;;;;;;2.69;100.00;97999.97;1039557;28;20323;-82
2023/01/17 00:11:31;;;;;;;1.92;1.40;;;;;;;2.69;100.00;97999.97;1038347;28;20377;-81
2023/01/17 00:12:04;;;;;;;1.73;1.63;;;;;;;2.68;100.00;98003.63;1034951;28;20682;-82
2023/01/17 00:12:36;;;;;;;1.88;1.30;;;;;;;2.66;100.00;97998.63;1035500;28;20307;-82
2023/01/17 00:13:08;;;;;;;1.27;1.17;;;;;;;2.70;100.00;98005.00;1036151;28;20296;-82
2023/01/17 00:13:40;;;;;;;1.52;1.23;;;;;;;2.75;100.00;97999.06;1031859;28;20305;-82
2023/01/17 00:14:11;;;;;;;1.17;0.90;;;;;;;2.79;100.00;98003.59;1035109;28;20313;-82
2023/01/17 00:15:01;;;;;;;1.95;1.00;;;;;;;2.77;100.00;98008.28;1037920;28;20371;-82
2023/01/17 00:15:33;;;;;;;0.73;0.60;;;;;;;2.75;100.00;97999.06;1041248;28;20675;-82
2023/01/17 00:16:05;;;;;;;7.18;0.80;;;;;;;2.68;100.00;98004.44;1046366;28;20692;-82
2023/01/17 00:16:37;;;;;;;1.25;1.15;;;;;;;2.73;100.00;98011.59;1043472;28;20326;-82
2023/01/17 00:17:08;;;;;;;3.00;0.70;;;;;;;2.74;100.00;98014.03;1039896;28;20318;-82
2023/01/17 00:17:40;;;;;;;0.95;0.57;;;;;;;2.78;100.00;98009.09;1039995;28;20300;-82
2023/01/17 00:18:11;;;;;;;1.02;0.63;;;;;;;2.63;100.00;98012.22;1040243;28;20288;-82
2023/01/17 00:26:01;;;;;;;0.32;0.32;;;;;;;2.55;100.00;98015.22;1037420;28;20304;-81
2023/01/17 00:26:03;;;;;;;0.30;0.30;;;;;;;2.52;100.00;98015.69;1047784;28;20295;-81
2023/01/17 00:26:34;;;;;;;0.32;0.20;;;;;;;2.47;100.00;98018.22;1043542;28;20332;-82
2023/01/17 01:33:40;;;;;;;3.78;0.32;;;;;;;2.27;100.00;98154.38;1046926;28;20306;-81
2023/01/17 01:34:11;;;;;;;1.00;0.25;;;;;;;2.23;100.00;98156.66;1044487;28;20715;-82
2023/01/17 01:34:43;;;;;;;2.22;0.40;;;;;;;2.28;100.00;98151.53;1043573;28;20295;-81
2023/01/17 01:35:15;;;;;;;1.55;0.57;;;;;;;2.20;100.00;98148.44;1039961;28;20331;-81
2023/01/17 01:35:52;;;;;;;3.90;0.50;;;;;;;2.21;100.00;98155.31;1035012;28;20312;-81
2023/01/17 01:36:24;;;;;;;4.57;0.35;;;;;;;2.20;100.00;98158.97;1026852;28;20298;-81
2023/01/17 01:36:57;;;;;;;3.80;0.50;;;;;;;2.22;100.00;98162.16;1030700;28;20867;-81
2023/01/17 01:37:30;;;;;;;2.42;0.40;;;;;;;2.28;100.00;98161.22;1032338;28;20333;-80
2023/01/17 01:38:03;;;;;;;2.08;1.00;;;;;;;2.28;100.00;98169.13;1033513;28;20301;-81
2023/01/17 01:38:35;;;;;;;1.75;0.50;;;;;;;2.25;100.00;98166.94;1039394;28;20300;-81
2023/01/17 01:39:07;;;;;;;2.72;0.85;;;;;;;2.33;100.00;98163.97;1029901;28;20302;-81
2023/01/17 01:39:38;;;;;;;2.58;1.10;;;;;;;2.26;100.00;98168.53;1035896;28;20301;-81
2023/01/17 01:40:10;;;;;;;2.58;0.30;;;;;;;2.27;100.00;98172.78;1039056;28;20552;-81
2023/01/17 01:40:48;;;;;;;2.53;0.50;;;;;;;2.24;100.00;98173.22;1036459;28;20313;-81
2023/01/17 01:41:19;;;;;;;5.38;1.17;;;;;;;2.22;100.00;98172.66;1041507;28;20789;-81
2023/01/17 01:41:51;;;;;;;3.30;0.50;;;;;;;2.14;100.00;98177.19;1038994;28;20304;-81
2023/01/17 01:42:22;;;;;;;4.30;0.82;;;;;;;2.18;100.00;98175.72;1044248;28;20784;-81
2023/01/17 01:42:56;;;;;;;6.22;0.52;;;;;;;2.25;100.00;98182.69;1045786;28;20304;-81
2023/01/17 01:43:46;;;;;;;1.30;0.30;;;;;;;2.23;100.00;98190.00;1040124;28;20370;-81
2023/01/17 01:44:54;;;;;;;2.40;0.40;;;;;;;2.21;100.00;98184.19;1039275;28;20308;-81
2023/01/17 01:45:49;;;;;;;1.27;0.40;;;;;;;2.20;100.00;98186.00;1040519;28;20299;-81
2023/01/17 01:46:23;;;;;;;5.55;0.90;;;;;;;2.16;100.00;98180.41;1041164;28;20288;-81
2023/01/17 01:46:55;;;;;;;5.88;0.80;;;;;;;2.16;100.00;98180.41;1036671;28;20311;-81
2023/01/17 01:47:36;;;;;;;1.25;0.50;;;;;;;2.12;100.00;98174.00;1039880;28;20896;-81
2023/01/17 01:48:34;;;;;;;0.57;0.30;;;;;;;2.11;100.00;98182.91;1040911;28;20311;-81
2023/01/17 01:49:16;;;;;;;0.30;0.20;;;;;;;2.09;100.00;98177.09;1038967;28;20526;-82
2023/01/17 01:49:49;;;;;;;1.83;0.55;;;;;;;2.12;100.00;98188.94;1034463;28;20678;-81
2023/01/17 01:50:20;;;;;;;1.65;0.40;;;;;;;2.13;100.00;98191.34;1038825;28;20300;-81
2023/01/17 01:50:52;;;;;;;1.65;1.08;;;;;;;2.13;100.00;98191.34;1045172;28;20307;-81
2023/01/17 01:51:28;;;;;;;2.72;0.85;;;;;;;2.15;100.00;98193.75;1045025;28;20299;-81
2023/01/17 01:52:01;;;;;;;1.45;0.32;;;;;;;2.11;100.00;98193.41;1047618;28;20294;-81
2023/01/17 01:52:34;;;;;;;0.50;0.30;;;;;;;2.05;100.00;98196.94;1041894;28;20295;-81
2023/01/17 01:53:06;;;;;;;3.05;0.90;;;;;;;2.04;100.00;98197.97;1040481;28;20358;-81
2023/01/17 01:53:42;;;;;;;0.70;0.30;;;;;;;2.05;100.00;98204.03;1044126;28;20674;-81
2023/01/17 01:54:19;;;;;;;1.95;0.50;;;;;;;2.10;100.00;98201.50;1047531;28;20283;-81
2023/01/17 01:54:55;;;;;;;1.02;0.52;;;;;;;2.13;100.00;98201.84;1047691;28;20306;-81
2023/01/17 01:55:30;;;;;;;2.83;0.60;;;;;;;2.14;100.00;98197.41;1043154;28;20291;-81
2023/01/17 01:56:04;;;;;;;2.60;0.75;;;;;;;2.17;100.00;98197.75;1041644;28;20714;-81
2023/01/17 01:56:37;;;;;;;0.30;0.30;;;;;;;2.15;100.00;98199.81;1039078;28;20305;-81
2023/01/17 01:57:11;;;;;;;0.88;0.20;;;;;;;2.15;100.00;98199.81;1036104;28;20304;-82
2023/01/17 01:57:46;;;;;;;2.22;0.50;;;;;;;2.18;100.00;98199.34;1036247;28;20667;-81
2023/01/17 01:58:27;;;;;;;2.58;1.10;;;;;;;2.16;100.00;98205.84;1036377;28;20301;-81
2023/01/17 01:59:02;;;;;;;0.80;0.40;;;;;;;2.13;100.00;98204.47;1041517;28;20851;-81
2023/01/17 01:59:37;;;;;;;3.95;0.75;;;;;;;2.08;100.00;98209.63;1042027;28;20288;-81
2023/01/17 02:00:16;;;;;;;3.17;0.43;;;;;;;2.08;100.00;98206.19;1035166;28;20296;-81
2023/01/17 02:00:48;;;;;;;4.05;0.43;;;;;;;2.07;100.00;98209.84;1031627;28;20354;-81
2023/01/17 02:01:19;;;;;;;2.13;0.38;;;;;;;2.11;100.00;98218.88;1024993;28;20361;-81
2023/01/17 02:01:52;;;;;;;3.88;0.40;;;;;;;2.09;100.00;98213.84;1032520;28;20312;-82
2023/01/17 02:02:24;;;;;;;4.45;0.50;;;;;;;2.11;100.00;98213.63;1034894;28;20368;-80
2023/01/17 02:02:59;;;;;;;1.48;0.40;;;;;;;2.04;100.00;98218.16;1040918;28;20303;-81
2023/01/17 02:03:31;;;;;;;2.00;0.35;;;;;;;2.07;100.00;98215.09;1041435;28;20302;-82
2023/01/17 02:04:08;;;;;;;0.90;0.32;;;;;;;2.19;100.00;98221.16;1039362;28;20669;-81
2023/01/17 02:04:41;;;;;;;2.42;0.50;;;;;;;2.24;100.00;98218.66;1039384;28;20319;-81
2023/01/17 02:05:14;;;;;;;0.28;0.17;;;;;;;2.18;100.00;98215.09;1040783;28;20296;-81
2023/01/17 02:05:45;;;;;;;4.45;0.77;;;;;;;2.25;100.00;98219.47;1035214;28;20311;-81
2023/01/17 02:06:17;;;;;;;2.35;0.55;;;;;;;2.30;100.00;98219.59;1030667;28;20297;-81
2023/01/17 02:06:53;;;;;;;0.28;0.20;;;;;;;2.24;100.00;98223.13;1031564;28;20304;-82
2023/01/17 02:07:30;;;;;;;1.13;0.20;;;;;;;2.22;100.00;98220.72;1032315;28;20689;-82
2023/01/17 02:08:07;;;;;;;3.10;0.30;;;;;;;2.17;100.00;98218.75;1034554;28;20514;-81
2023/01/17 02:08:39;;;;;;;3.47;0.30;;;;;;;2.14;100.00;98224.47;1035382;28;20293;-82
2023/01/17 02:09:15;;;;;;;4.10;0.50;;;;;;;2.12;100.00;98231.75;1033050;28;20304;-81
2023/01/17 02:09:46;;;;;;;2.47;0.25;;;;;;;2.22;100.00;98219.94;1036682;28;20305;-81
2023/01/17 02:10:18;;;;;;;2.88;0.20;;;;;;;2.26;100.00;98221.06;1040176;28;20300;-81
2023/01/17 02:10:50;;;;;;;3.90;0.30;;;;;;;2.28;100.00;98224.25;1040386;28;20312;-82
2023/01/17 02:11:21;;;;;;;1.17;0.40;;;;;;;2.29;100.00;98228.50;1043474;28;20314;-81
2023/01/17 02:11:53;;;;;;;1.58;0.50;;;;;;;2.32;100.00;98235.91;1043075;28;20793;-81
2023/01/17 02:12:25;;;;;;;1.05;0.28;;;;;;;2.20;100.00;98237.75;1043249;28;20926;-81
2023/01/17 02:12:57;;;;;;;2.28;0.60;;;;;;;2.19;100.00;98234.28;1041820;28;20303;-81
2023/01/17 02:13:30;;;;;;;2.35;0.20;;;;;;;2.08;100.00;98232.44;1034509;28;20371;-81
2023/01/17 02:14:01;;;;;;;2.85;0.40;;;;;;;2.13;100.00;98243.06;1035072;28;20315;-81
2023/01/17 02:14:33;;;;;;;0.57;0.30;;;;;;;2.14;100.00;98240.22;1037936;28;20506;-81
2023/01/17 02:15:06;;;;;;;1.27;0.30;;;;;;;2.27;100.00;98238.44;1043850;28;20291;-81
2023/01/17 02:15:42;;;;;;;4.18;0.60;;;;;;;2.26;100.00;98236.81;1046971;28;20653;-81
2023/01/17 02:16:43;;;;;;;2.50;0.30;;;;;;;2.17;100.00;98241.59;1046089;28;20299;-81
2023/01/17 02:17:32;;;;;;;1.52;0.30;;;;;;;2.17;100.00;98244.22;1052493;28;20305;-81
2023/01/17 02:18:19;;;;;;;3.05;0.45;;;;;;;2.08;100.00;98241.13;1050022;28;20393;-81
2023/01/17 02:19:16;;;;;;;2.00;0.20;;;;;;;2.16;100.00;98247.88;1041723;28;20310;-82
2023/01/17 02:19:50;;;;;;;2.15;0.50;;;;;;;2.04;100.00;98245.22;1035402;28;20682;-81
2023/01/17 02:20:41;;;;;;;0.98;0.20;;;;;;;2.03;100.00;98254.13;1034905;28;20307;-81
2023/01/17 02:21:27;;;;;;;1.20;0.20;;;;;;;2.05;100.00;98252.06;1043659;28;20388;-81
2023/01/17 02:22:16;;;;;;;1.55;0.45;;;;;;;1.92;100.00;98252.28;1042403;28;20307;-81
2023/01/17 02:23:19;;;;;;;5.18;0.65;;;;;;;2.02;100.00;98252.53;1041285;28;20353;-81
2023/01/17 02:24:18;;;;;;;1.15;1.00;;;;;;;1.86;100.00;98250.53;1038963;28;20306;-82
2023/01/17 02:25:14;;;;;;;2.50;0.38;;;;;;;1.91;100.00;98255.91;1042973;28;20291;-81
2023/01/17 02:25:58;;;;;;;0.88;0.85;;;;;;;1.96;100.00;98252.63;1042312;28;20561;-81
2023/01/17 02:26:38;;;;;;;1.45;0.20;;;;;;;2.03;100.00;98259.38;1044499;28;20295;-81
2023/01/17 02:27:25;;;;;;;0.70;0.38;;;;;;;2.05;100.00;98253.91;1043456;28;20299;-81
2023/01/17 02:27:59;;;;;;;0.88;0.10;;;;;;;2.03;100.00;98259.38;1046000;28;20482;-81
2023/01/17 02:28:46;;;;;;;2.10;0.30;;;;;;;2.02;100.00;98262.22;1043194;28;20773;-81
2023/01/17 02:29:42;;;;;;;0.20;0.20;;;;;;;1.96;100.00;98258.69;1043385;28;20303;-81
2023/01/17 02:30:36;;;;;;;1.75;0.35;;;;;;;2.05;100.00;98256.53;1041099;28;20303;-81
2023/01/17 02:31:17;;;;;;;2.85;0.47;;;;;;;1.92;100.00;98267.19;1037728;28;20301;-81
2023/01/17 02:31:55;;;;;;;1.17;0.40;;;;;;;2.05;100.00;98267.81;1033059;28;20881;-81
2023/01/17 02:32:34;;;;;;;0.60;0.30;;;;;;;1.96;100.00;98278.88;1035199;28;20340;-81
2023/01/17 02:33:30;;;;;;;1.27;0.43;;;;;;;1.97;100.00;98269.97;1036504;28;20307;-80
2023/01/17 02:34:16;;;;;;;3.75;0.50;;;;;;;2.05;100.00;98273.06;1039291;28;20300;-80
2023/01/17 02:34:57;;;;;;;2.65;0.40;;;;;;;1.87;100.00;98267.88;1036255;28;20521;-81
2023/01/17 02:35:48;;;;;;;1.58;0.38;;;;;;;1.88;100.00;98276.56;1030602;28;20313;-79
2023/01/17 02:36:24;;;;;;;2.65;0.50;;;;;;;1.83;100.00;98271.97;1034550;28;20321;-80
2023/01/17 02:37:41;;;;;;;3.70;0.28;;;;;;;1.95;100.00;98282.53;1030572;28;20224;-81
2023/01/17 02:38:30;;;;;;;0.77;0.50;;;;;;;1.78;100.00;98288.38;1037615;28;20316;-81
2023/01/17 02:39:08;;;;;;;0.40;0.17;;;;;;;1.89;100.00;98273.69;1047368;28;20295;-80
2023/01/17 02:39:50;;;;;;;1.75;0.30;;;;;;;1.89;100.00;98281.56;1041698;28;20681;-80
2023/01/17 02:40:40;;;;;;;1.10;0.15;;;;;;;1.83;100.00;98274.59;1031722;28;20653;-80
2023/01/17 02:41:29;;;;;;;3.97;0.30;;;;;;;1.68;100.00;98272.38;1034048;28;20396;-80
2023/01/17 02:42:04;;;;;;;0.22;0.15;;;;;;;1.71;100.00;98271.13;1033378;28;20519;-79
2023/01/17 02:42:49;;;;;;;0.47;0.30;;;;;;;1.63;100.00;98268.81;1040474;28;20327;-80
2023/01/17 02:43:22;;;;;;;4.05;0.47;;;;;;;1.54;100.00;98279.59;1035694;28;20297;-81
2023/01/17 02:43:54;;;;;;;0.40;0.40;;;;;;;1.60;100.00;98279.75;1034196;28;20304;-80
2023/01/17 02:44:26;;;;;;;3.30;0.50;;;;;;;1.52;100.00;98276.41;1034083;28;20420;-81
2023/01/17 02:44:57;;;;;;;1.48;0.68;;;;;;;1.49;100.00;98276.84;1038810;28;20300;-81
2023/01/17 02:45:29;;;;;;;1.08;0.40;;;;;;;1.60;100.00;98280.53;1043783;28;20295;-81
2023/01/17 02:46:00;;;;;;;2.67;0.38;;;;;;;1.62;100.00;98282.94;1044283;28;20299;-81
2023/01/17 02:46:41;;;;;;;0.32;0.32;;;;;;;1.57;100.00;98288.06;1048385;28;20719;-81
2023/01/17 02:47:27;;;;;;;1.15;0.40;;;;;;;1.51;100.00;98287.13;1048132;28;20287;-81
2023/01/17 02:47:59;;;;;;;0.20;0.17;;;;;;;1.44;100.00;98295.06;1047877;28;20045;-80
2023/01/17 02:48:32;;;;;;;3.63;0.40;;;;;;;1.47;100.00;98286.75;1045200;28;20314;-80
2023/01/17 02:49:04;;;;;;;2.03;0.93;;;;;;;1.55;100.00;98288.28;1035797;28;20301;-79
2023/01/17 02:49:35;;;;;;;3.03;0.88;;;;;;;1.56;100.00;98289.88;1036195;28;20303;-80
2023/01/17 02:50:42;;;;;;;1.35;0.43;;;;;;;1.53;100.00;98287.69;1035608;28;20297;-80
2023/01/17 02:51:41;;;;;;;1.27;0.20;;;;;;;1.57;100.00;98288.84;1032714;28;20309;-80
2023/01/17 02:52:24;;;;;;;0.75;0.25;;;;;;;1.48;100.00;98293.63;1039823;28;20296;-80
2023/01/17 02:53:01;;;;;;;1.30;0.40;;;;;;;1.63;100.00;98290.59;1039676;28;20339;-80
2023/01/17 02:53:51;;;;;;;0.40;0.40;;;;;;;1.53;100.00;98290.31;1039957;28;20343;-80
2023/01/17 02:54:41;;;;;;;2.75;0.30;;;;;;;1.50;100.00;98296.81;1048534;28;20656;-80
2023/01/17 02:55:21;;;;;;;1.17;0.28;;;;;;;1.47;100.00;98297.25;1048249;28;20305;-80
2023/01/17 02:56:18;;;;;;;4.13;0.40;;;;;;;1.47;100.00;98297.25;1044079;28;20295;-80
2023/01/17 02:57:22;;;;;;;0.30;0.30;;;;;;;1.51;100.00;98302.88;1045475;28;20083;-80
2023/01/17 02:58:32;;;;;;;0.55;0.30;;;;;;;1.46;100.00;98305.34;1046181;28;20388;-81
2023/01/17 02:59:17;;;;;;;0.30;0.25;;;;;;;1.45;100.00;98299.31;1035600;28;20305;-80
2023/01/17 02:59:57;;;;;;;2.75;0.30;;;;;;;1.36;100.00;98303.22;1040507;28;20318;-80
2023/01/17 03:00:43;;;;;;;1.35;0.15;;;;;;;1.42;100.00;98305.00;1044039;28;20299;-80
2023/01/17 03:01:32;;;;;;;0.68;0.20;;;;;;;1.45;100.00;98311.63;1039905;28;20389;-80
2023/01/17 03:02:20;;;;;;;0.20;0.20;;;;;;;1.43;100.00;98311.03;1035755;28;20304;-81
2023/01/17 03:03:10;;;;;;;2.53;0.70;;;;;;;1.32;100.00;98299.44;1035715;28;20645;-80
2023/01/17 03:03:59;;;;;;;1.33;0.20;;;;;;;1.40;100.00;98301.00;1040979;28;20318;-80
2023/01/17 03:04:39;;;;;;;1.30;0.50;;;;;;;1.39;100.00;98305.44;1043375;28;20832;-81
2023/01/17 03:05:30;;;;;;;1.27;0.20;;;;;;;1.36;100.00;98303.22;1043758;28;20373;-80
2023/01/17 03:06:10;;;;;;;0.40;0.40;;;;;;;1.29;100.00;98307.75;1040163;28;20056;-81
2023/01/17 03:06:53;;;;;;;2.38;0.30;;;;;;;1.32;100.00;98314.38;1035618;28;20049;-81
2023/01/17 03:07:26;;;;;;;0.50;0.20;;;;;;;1.32;100.00;98309.94;1034927;28;20041;-81
2023/01/17 03:07:59;;;;;;;1.88;0.47;;;;;;;1.30;100.00;98319.03;1030791;28;20301;-80
2023/01/17 03:08:31;;;;;;;1.63;0.52;;;;;;;1.29;100.00;98315.59;1030662;28;20357;-81
2023/01/17 03:09:03;;;;;;;2.15;0.20;;;;;;;1.28;100.00;98318.44;1032461;28;20301;-80
2023/01/17 03:09:35;;;;;;;0.50;0.20;;;;;;;1.33;100.00;98316.78;1036993;28;20962;-80
2023/01/17 03:10:08;;;;;;;4.53;0.50;;;;;;;1.41;100.00;98319.13;1038283;28;20810;-80
2023/01/17 03:10:40;;;;;;;2.97;0.30;;;;;;;1.42;100.00;98320.72;1039906;28;20288;-80
2023/01/17 03:11:12;;;;;;;0.30;0.20;;;;;;;1.48;100.00;98322.47;1034699;28;20315;-80
2023/01/17 03:11:44;;;;;;;0.63;0.60;;;;;;;1.44;100.00;98323.94;1032496;28;20305;-80
2023/01/17 03:12:16;;;;;;;0.85;0.20;;;;;;;1.53;100.00;98319.19;1036216;28;20817;-80
2023/01/17 03:12:48;;;;;;;1.05;0.45;;;;;;;1.57;100.00;98327.41;1035124;28;20822;-80
2023/01/17 03:13:21;;;;;;;1.77;1.10;;;;;;;1.48;100.00;98317.22;1036072;28;20308;-80
2023/01/17 03:13:58;;;;;;;1.67;0.30;;;;;;;1.46;100.00;98327.13;1035671;28;20694;-80
2023/01/17 03:14:30;;;;;;;1.08;0.25;;;;;;;1.52;100.00;98323.63;1031834;28;20303;-80
2023/01/17 03:15:02;;;;;;;0.75;0.40;;;;;;;1.60;100.00;98326.97;1035444;28;20297;-80
2023/01/17 03:15:34;;;;;;;0.40;0.30;;;;;;;1.60;100.00;98332.22;1036805;28;20304;-80
2023/01/17 03:16:11;;;;;;;1.10;0.30;;;;;;;1.52;100.00;98321.00;1036748;28;20367;-80
2023/01/17 03:16:43;;;;;;;1.38;0.20;;;;;;;1.54;100.00;98324.19;1039686;28;20296;-80
2023/01/17 03:17:15;;;;;;;1.35;0.35;;;;;;;1.54;100.00;98328.66;1039469;28;20848;-80
2023/01/17 03:17:48;;;;;;;0.47;0.45;;;;;;;1.48;100.00;98324.28;1040115;28;20827;-80
2023/01/17 03:18:20;;;;;;;6.50;0.25;;;;;;;1.54;100.00;98326.81;1037369;28;20302;-80
2023/01/17 03:18:52;;;;;;;0.43;0.30;;;;;;;1.51;100.00;98329.91;1035691;28;20861;-80
2023/01/17 03:19:24;;;;;;;0.55;0.20;;;;;;;1.64;100.00;98328.13;1035858;28;20301;-81
2023/01/17 03:19:56;;;;;;;2.95;0.50;;;;;;;1.52;100.00;98331.50;1036057;28;20332;-80
2023/01/17 03:20:27;;;;;;;5.38;0.55;;;;;;;1.54;100.00;98334.69;1035923;28;20308;-80
2023/01/17 03:21:00;;;;;;;0.17;0.17;;;;;;;1.57;100.00;98332.66;1035358;28;20726;-80
2023/01/17 03:21:31;;;;;;;0.95;0.30;;;;;;;1.53;100.00;98337.53;1035852;28;20304;-81
2023/01/17 03:22:03;;;;;;;4.38;0.50;;;;;;;1.50;100.00;98338.78;1037075;28;20324;-80
2023/01/17 03:22:34;;;;;;;2.25;0.30;;;;;;;1.42;100.00;98336.47;1043299;28;20815;-80
2023/01/17 03:23:06;;;;;;;3.78;0.60;;;;;;;1.42;100.00;98341.72;1039568;28;20811;-80
2023/01/17 03:23:38;;;;;;;5.45;0.50;;;;;;;1.47;100.00;98336.59;1040352;28;20298;-80
2023/01/17 03:24:10;;;;;;;1.73;0.15;;;;;;;1.55;100.00;98338.13;1043554;28;20299;-80
2023/01/17 03:24:42;;;;;;;0.57;0.20;;;;;;;1.47;100.00;98327.94;1043658;28;20291;-80
2023/01/17 03:25:15;;;;;;;1.55;0.30;;;;;;;1.48;100.00;98346.06;1043733;28;20353;-80
2023/01/17 03:25:46;;;;;;;0.15;0.15;;;;;;;1.55;100.00;98346.00;1043447;28;20310;-80
2023/01/17 03:26:19;;;;;;;1.83;0.85;;;;;;;1.54;100.00;98339.16;1039466;28;20394;-80
2023/01/17 03:26:50;;;;;;;1.80;0.40;;;;;;;1.53;100.00;98337.53;1039718;28;20331;-80
2023/01/17 03:27:22;;;;;;;1.65;0.20;;;;;;;1.56;100.00;98342.34;1040482;28;20390;-80
2023/01/17 03:27:54;;;;;;;0.75;0.30;;;;;;;1.63;100.00;98352.75;1038645;28;20786;-80
2023/01/17 03:28:25;;;;;;;1.10;0.40;;;;;;;1.62;100.00;98348.53;1033087;28;20329;-80
2023/01/17 03:28:57;;;;;;;2.45;0.98;;;;;;;1.55;100.00;98351.25;1032128;28;20337;-80
2023/01/17 03:29:28;;;;;;;1.95;0.50;;;;;;;1.61;100.00;98341.69;1036211;28;20292;-81
2023/01/17 03:30:00;;;;;;;2.13;0.40;;;;;;;1.70;100.00;98343.81;1040350;28;20288;-80
2023/01/17 03:30:32;;;;;;;1.15;0.40;;;;;;;1.62;100.00;98345.91;1039702;28;20863;-80
2023/01/17 03:31:04;;;;;;;0.57;0.50;;;;;;;1.67;100.00;98348.69;1040660;28;20307;-80
2023/01/17 03:31:36;;;;;;;0.60;0.30;;;;;;;1.67;100.00;98344.25;1040126;28;20315;-80
2023/01/17 03:32:07;;;;;;;1.15;0.20;;;;;;;1.59;100.00;98346.34;1044490;28;20298;-79
2023/01/17 03:32:39;;;;;;;5.22;0.90;;;;;;;1.56;100.00;98347.59;1043195;28;20307;-80
2023/01/17 03:33:10;;;;;;;2.70;0.40;;;;;;;1.55;100.00;98352.03;1043737;28;20299;-79
2023/01/17 03:33:42;;;;;;;3.20;1.00;;;;;;;1.52;100.00;98349.84;1042412;28;20306;-80
2023/01/17 03:34:14;;;;;;;6.32;2.00;;;;;;;1.52;100.00;98349.84;1039098;28;20347;-79
2023/01/17 03:34:45;;;;;;;1.13;0.40;;;;;;;1.47;100.00;98346.28;1031253;28;20676;-80
2023/01/17 03:35:17;;;;;;;0.43;0.43;;;;;;;1.49;100.00;98346.88;1027961;28;20353;-80
2023/01/17 03:35:49;;;;;;;1.33;1.08;;;;;;;1.48;100.00;98346.06;1032992;28;20786;-80
2023/01/17 03:36:20;;;;;;;1.60;0.70;;;;;;;1.43;100.00;98345.94;1036456;28;20595;-80
2023/01/17 03:36:52;;;;;;;1.75;0.77;;;;;;;1.50;100.00;98349.28;1040164;28;20303;-80
2023/01/17 03:37:23;;;;;;;2.47;0.70;;;;;;;1.49;100.00;98346.88;1038810;28;20308;-80
2023/01/17 03:37:55;;;;;;;1.90;0.77;;;;;;;1.54;100.00;98339.94;1039740;28;20994;-80
2023/01/17 03:38:29;;;;;;;2.60;1.00;;;;;;;1.53;100.00;98340.97;1036195;28;20304;-80
2023/01/17 03:39:01;;;;;;;2.45;1.13;;;;;;;1.50;100.00;98348.47;1040022;28;20296;-79
2023/01/17 03:39:33;;;;;;;2.22;0.77;;;;;;;1.45;100.00;98348.34;1039314;28;20303;-80
2023/01/17 03:40:05;;;;;;;1.20;0.85;;;;;;;1.49;100.00;98347.69;1037361;28;20445;-80
2023/01/17 03:40:37;;;;;;;2.42;0.95;;;;;;;1.56;100.00;98342.34;1040705;28;20292;-80
2023/01/17 03:41:08;;;;;;;2.28;1.15;;;;;;;1.62;100.00;98346.72;1043515;28;20660;-80
2023/01/17 03:41:40;;;;;;;0.57;0.55;;;;;;;1.52;100.00;98349.06;1039041;28;20669;-79
2023/01/17 03:42:11;;;;;;;1.33;1.10;;;;;;;1.53;100.00;98348.84;1039624;28;20295;-80
2023/01/17 03:42:43;;;;;;;2.70;1.15;;;;;;;1.58;100.00;98348.16;1035258;28;20300;-80
2023/01/17 03:43:15;;;;;;;2.15;0.60;;;;;;;1.62;100.00;98349.34;1036060;28;20645;-80
2023/01/17 03:43:46;;;;;;;2.35;0.70;;;;;;;1.51;100.00;98348.25;1043912;28;20291;-81
2023/01/17 03:44:18;;;;;;;4.90;0.80;;;;;;;1.49;100.00;98352.91;1047816;28;20309;-79
2023/01/17 03:44:49;;;;;;;3.80;1.17;;;;;;;1.49;100.00;98352.91;1051655;28;20652;-80
2023/01/17 03:45:21;;;;;;;3.63;1.27;;;;;;;1.49;100.00;98352.13;1047888;28;20298;-80
2023/01/17 03:46:00;;;;;;;7.03;1.40;;;;;;;1.52;100.00;98347.22;1047741;28;20371;-80
2023/01/17 03:46:32;;;;;;;1.70;0.57;;;;;;;1.46;100.00;98348.13;1047743;28;20310;-79
2023/01/17 03:47:04;;;;;;;1.20;0.75;;;;;;;1.48;100.00;98348.69;1043463;28;20306;-80
2023/01/17 03:47:35;;;;;;;3.17;1.05;;;;;;;1.57;100.00;98349.19;1043527;28;20396;-80
2023/01/17 03:48:07;;;;;;;3.47;0.93;;;;;;;1.52;100.00;98343.81;1043829;28;20654;-80
2023/01/17 03:48:40;;;;;;;2.47;1.17;;;;;;;1.57;100.00;98349.19;1042618;28;20314;-80
2023/01/17 03:49:11;;;;;;;8.90;1.23;;;;;;;1.47;100.00;98352.34;1039281;28;20693;-80
2023/01/17 03:49:43;;;;;;;3.30;0.60;;;;;;;1.44;100.00;98350.16;1039374;28;20810;-80
2023/01/17 03:50:14;;;;;;;2.55;0.80;;;;;;;1.44;100.00;98349.34;1043965;28;20299;-80
2023/01/17 03:50:50;;;;;;;3.33;1.08;;;;;;;1.47;100.00;98348.91;1044080;28;20303;-80
2023/01/17 03:51:21;;;;;;;3.58;0.98;;;;;;;1.54;100.00;98355.69;1043008;28;20315;-80
2023/01/17 03:51:53;;;;;;;4.82;1.00;;;;;;;1.63;100.00;98358.00;1041628;28;20296;-79
2023/01/17 03:52:24;;;;;;;1.60;0.90;;;;;;;1.66;100.00;98357.59;1037920;28;20300;-79
2023/01/17 03:52:56;;;;;;;1.70;0.90;;;;;;;1.60;100.00;98353.19;1035817;28;20314;-79
2023/01/17 03:53:27;;;;;;;2.47;0.80;;;;;;;1.52;100.00;98356.94;1035956;28;20304;-79
2023/01/17 03:53:59;;;;;;;2.72;1.40;;;;;;;1.48;100.00;98361.00;1035595;28;20362;-79
2023/01/17 03:54:31;;;;;;;2.38;0.82;;;;;;;1.47;100.00;98365.47;1030749;28;20305;-79
2023/01/17 03:55:03;;;;;;;2.70;0.93;;;;;;;1.57;100.00;98359.69;1031964;28;20339;-79
2023/01/17 03:55:35;;;;;;;3.22;1.20;;;;;;;1.50;100.00;98364.22;1031359;28;20305;-79
2023/01/17 03:56:09;;;;;;;4.45;1.15;;;;;;;1.51;100.00;98374.50;1029796;28;20302;-79
2023/01/17 03:56:41;;;;;;;3.50;1.70;;;;;;;1.48;100.00;98374.94;1035290;28;20762;-79
2023/01/17 03:57:13;;;;;;;3.30;1.02;;;;;;;1.45;100.00;98371.94;1032208;28;20301;-79
2023/01/17 03:57:44;;;;;;;4.43;1.25;;;;;;;1.44;100.00;98371.13;1036146;28;20634;-80
2023/01/17 03:58:16;;;;;;;1.90;1.00;;;;;;;1.48;100.00;98366.25;1035245;28;20312;-80
2023/01/17 03:58:47;;;;;;;5.32;1.15;;;;;;;1.42;100.00;98370.56;1040261;28;20335;-79
2023/01/17 03:59:19;;;;;;;3.08;1.08;;;;;;;1.47;100.00;98369.91;1039053;28;20311;-79
2023/01/17 03:59:51;;;;;;;3.22;0.90;;;;;;;1.50;100.00;98375.50;1039418;28;20934;-79
2023/01/17 04:00:22;;;;;;;3.28;2.08;;;;;;;1.54;100.00;98370.63;1035557;28;20379;-79
2023/01/17 04:00:54;;;;;;;2.28;1.30;;;;;;;1.54;100.00;98374.03;1035553;28;20301;-79
2023/01/17 04:01:26;;;;;;;2.08;1.27;;;;;;;1.48;100.00;98367.06;1035000;28;20296;-79
2023/01/17 04:01:57;;;;;;;6.88;1.15;;;;;;;1.57;100.00;98374.63;1031654;28;20297;-79
2023/01/17 04:02:29;;;;;;;2.00;1.17;;;;;;;1.57;100.00;98379.88;1035546;28;20300;-79
2023/01/17 04:03:01;;;;;;;4.85;1.20;;;;;;;1.63;100.00;98381.63;1039421;28;20383;-79
2023/01/17 04:03:32;;;;;;;3.47;2.05;;;;;;;1.60;100.00;98379.44;1038603;28;20311;-79
2023/01/17 04:04:04;;;;;;;2.53;1.33;;;;;;;1.57;100.00;98377.25;1047634;28;20320;-79
2023/01/17 04:04:36;;;;;;;2.42;1.20;;;;;;;1.62;100.00;98372.16;1043163;28;20306;-79
2023/01/17 04:05:08;;;;;;;3.65;1.48;;;;;;;1.67;100.00;98374.94;1040201;28;20307;-79
2023/01/17 04:05:39;;;;;;;3.40;1.63;;;;;;;1.68;100.00;98384.41;1035200;28;20344;-79
2023/01/17 04:06:11;;;;;;;2.55;1.67;;;;;;;1.56;100.00;98379.06;1031445;28;20301;-79
2023/01/17 04:06:43;;;;;;;3.53;1.60;;;;;;;1.64;100.00;98380.59;1032011;28;20306;-79
2023/01/17 04:07:14;;;;;;;1.88;1.67;;;;;;;1.71;100.00;98381.34;1034547;28;20293;-79
2023/01/17 04:07:46;;;;;;;2.55;2.35;;;;;;;1.68;100.00;98381.78;1043075;28;20314;-79
2023/01/17 04:08:17;;;;;;;3.88;1.67;;;;;;;1.61;100.00;98381.03;1047692;28;20291;-79
2023/01/17 04:08:49;;;;;;;3.75;1.77;;;;;;;1.49;100.00;98381.78;1047809;28;20291;-79
2023/01/17 04:09:21;;;;;;;5.97;2.17;;;;;;;1.50;100.00;98380.75;1036535;28;20670;-79